Time;durP1;ratioP1;P1;durP2;ratioP2;P2;SDS_P1;SDS_P2;PMS_P1;PMS_P2;Temp;Humidity;BMP_temperature;BMP_pressure;BME280_temperature;BME280_humidity;BME280_pressure;Samples;Min_cycle;Max_cycle;Signal;HPM_P1;HPM_P2
2021/08/13 00:00:20;;;;;;;13.20;6.22;;;;;;;18.07;76.68;99446.09;5032750;28;20034;-56
2021/08/13 00:02:45;;;;;;;8.82;6.15;;;;;;;18.06;76.78;99440.88;5032937;28;20370;-55
2021/08/13 00:05:11;;;;;;;8.02;6.32;;;;;;;18.03;76.97;99450.22;5033508;28;20033;-58
2021/08/13 00:07:37;;;;;;;7.95;6.00;;;;;;;17.97;76.97;99439.22;5033601;28;20374;-59
2021/08/13 00:10:03;;;;;;;6.40;5.72;;;;;;;17.94;77.08;99454.81;5033075;28;20060;-57
2021/08/13 00:12:29;;;;;;;7.97;6.10;;;;;;;17.89;76.86;99456.38;5032916;28;20033;-56
2021/08/13 00:14:57;;;;;;;7.43;5.43;;;;;;;17.85;77.00;99457.75;5032533;28;20527;-59
2021/08/13 00:17:24;;;;;;;6.40;5.18;;;;;;;17.82;76.84;99458.13;5033070;28;20091;-59
2021/08/13 00:19:50;;;;;;;8.80;4.93;;;;;;;17.78;76.94;99463.06;5032874;28;20048;-60
2021/08/13 00:22:15;;;;;;;7.63;5.45;;;;;;;17.77;76.78;99453.25;5032768;28;20463;-59
2021/08/13 00:24:41;;;;;;;8.15;4.90;;;;;;;17.76;76.78;99459.69;5032759;28;20031;-56
2021/08/13 00:27:06;;;;;;;8.05;5.30;;;;;;;17.75;76.59;99458.00;5032937;28;20025;-65
2021/08/13 00:29:32;;;;;;;9.25;5.70;;;;;;;17.69;76.64;99451.44;5032791;28;20029;-58
2021/08/13 00:32:12;;;;;;;8.32;4.90;;;;;;;17.68;76.57;99459.75;5032589;28;20037;-58
2021/08/13 00:34:38;;;;;;;8.38;5.28;;;;;;;17.56;76.90;99453.91;5032923;28;20037;-60
2021/08/13 00:37:04;;;;;;;8.25;5.03;;;;;;;17.52;76.96;99453.41;5032842;28;20041;-56
2021/08/13 00:39:30;;;;;;;7.18;4.65;;;;;;;17.43;77.15;99452.59;5032386;28;20075;-59
2021/08/13 00:41:55;;;;;;;6.43;4.90;;;;;;;17.41;77.31;99454.66;5034488;28;20040;-58
2021/08/13 00:44:21;;;;;;;8.18;5.57;;;;;;;17.33;77.62;99449.28;5052173;28;20491;-56
2021/08/13 00:46:46;;;;;;;6.43;4.43;;;;;;;17.24;77.99;99453.03;5052118;28;20028;-56
2021/08/13 00:49:12;;;;;;;8.10;4.78;;;;;;;17.23;78.16;99452.22;5051946;28;20031;-59
2021/08/13 00:51:37;;;;;;;9.75;4.75;;;;;;;17.19;78.10;99453.59;5052107;28;20384;-71
2021/08/13 00:54:03;;;;;;;8.10;4.88;;;;;;;17.13;78.13;99446.19;5052447;28;20048;-55
2021/08/13 00:56:28;;;;;;;6.53;5.07;;;;;;;17.08;78.33;99442.13;5051944;28;20032;-61
2021/08/13 00:58:54;;;;;;;7.38;5.13;;;;;;;17.01;78.58;99440.31;5051808;28;20591;-55
2021/08/13 01:01:19;;;;;;;5.75;4.47;;;;;;;17.02;79.00;99444.72;5052217;28;20051;-57
2021/08/13 01:03:46;;;;;;;7.57;4.90;;;;;;;16.96;78.98;99446.22;5051871;28;20376;-55
2021/08/13 01:06:13;;;;;;;5.60;4.78;;;;;;;16.82;79.16;99430.72;5051773;28;20032;-55
2021/08/13 01:08:40;;;;;;;8.98;4.93;;;;;;;16.89;79.22;99437.13;5052386;28;20035;-61
2021/08/13 01:11:14;;;;;;;8.18;5.20;;;;;;;16.90;79.24;99431.53;5051914;28;20025;-56
2021/08/13 01:14:29;;;;;;;10.35;5.50;;;;;;;16.98;79.33;99437.91;5051441;28;20530;-60
2021/08/13 01:16:58;;;;;;;10.73;5.13;;;;;;;16.81;79.23;99429.03;5029542;28;20041;-59
2021/08/13 01:19:32;;;;;;;7.90;5.53;;;;;;;16.75;79.52;99428.72;5029408;28;20030;-56
2021/08/13 01:21:57;;;;;;;8.77;5.40;;;;;;;16.72;79.59;99433.59;5034461;28;20460;-58
2021/08/13 01:24:26;;;;;;;9.95;5.38;;;;;;;16.75;79.71;99444.06;5051495;28;20084;-59
2021/08/13 01:27:05;;;;;;;8.55;5.00;;;;;;;16.82;79.34;99438.81;5050483;28;20119;-58
2021/08/13 01:29:35;;;;;;;9.52;5.10;;;;;;;16.84;78.97;99440.34;5051527;28;20480;-56
2021/08/13 01:32:12;;;;;;;6.78;4.75;;;;;;;16.91;78.72;99449.44;5051490;28;20049;-56
2021/08/13 01:34:42;;;;;;;6.57;4.78;;;;;;;16.91;78.48;99456.72;5051896;28;20044;-56
2021/08/13 01:37:07;;;;;;;8.05;5.00;;;;;;;16.96;77.97;99445.34;5051495;28;20032;-59
2021/08/13 01:39:35;;;;;;;8.60;4.85;;;;;;;17.04;77.56;99454.31;5050886;28;20158;-62
2021/08/13 01:42:02;;;;;;;6.22;4.95;;;;;;;17.14;77.10;99458.69;5051583;28;20140;-56
2021/08/13 01:44:30;;;;;;;9.13;5.10;;;;;;;17.18;76.61;99466.25;5051643;28;20084;-55
2021/08/13 01:46:56;;;;;;;6.53;5.15;;;;;;;17.26;76.24;99465.38;5051081;28;20043;-58
2021/08/13 01:49:23;;;;;;;9.25;5.70;;;;;;;17.29;75.76;99470.44;5051144;28;20037;-58
2021/08/13 01:51:49;;;;;;;9.85;5.47;;;;;;;17.39;75.18;99483.75;5051444;28;20036;-56
2021/08/13 01:54:16;;;;;;;6.55;5.57;;;;;;;17.37;74.75;99485.78;5049918;28;20037;-56
2021/08/13 01:56:43;;;;;;;5.68;5.10;;;;;;;17.36;74.83;99474.16;5050759;28;20115;-65
2021/08/13 01:59:09;;;;;;;8.48;5.15;;;;;;;17.38;74.81;99487.47;5051526;28;20048;-57
2021/08/13 02:01:36;;;;;;;7.18;5.55;;;;;;;17.36;74.31;99482.25;5051584;28;20124;-58
2021/08/13 02:04:03;;;;;;;7.90;5.35;;;;;;;17.42;74.44;99485.28;5051239;28;20029;-58
2021/08/13 02:06:32;;;;;;;9.60;4.95;;;;;;;17.45;74.35;99490.31;5051053;28;20033;-56
2021/08/13 02:08:59;;;;;;;10.00;5.50;;;;;;;17.43;74.19;99500.50;5050945;28;20043;-56
2021/08/13 02:11:25;;;;;;;6.57;5.38;;;;;;;17.42;73.79;99486.09;5041192;28;20034;-58
2021/08/13 02:13:52;;;;;;;5.30;4.80;;;;;;;17.43;73.63;99492.38;5030812;28;20029;-56
2021/08/13 02:16:24;;;;;;;5.65;4.20;;;;;;;17.45;73.51;99493.03;5030894;28;20030;-56
2021/08/13 02:18:59;;;;;;;4.72;4.20;;;;;;;17.47;73.47;99497.22;5030594;28;20354;-57
2021/08/13 02:21:28;;;;;;;9.68;4.00;;;;;;;17.49;73.35;99506.03;5031489;28;20033;-54
2021/08/13 02:23:53;;;;;;;6.80;3.88;;;;;;;17.46;72.68;99494.72;5030928;28;20120;-56
2021/08/13 02:26:19;;;;;;;4.28;3.60;;;;;;;17.44;72.19;99502.19;5030662;28;20456;-57
2021/08/13 02:28:44;;;;;;;3.60;3.30;;;;;;;17.41;72.20;99499.81;5030559;28;20036;-56
2021/08/13 02:31:10;;;;;;;4.25;3.28;;;;;;;17.40;72.03;99500.84;5031269;28;20045;-56
2021/08/13 02:33:35;;;;;;;5.32;3.38;;;;;;;17.41;71.97;99497.13;5030654;28;20041;-62
2021/08/13 02:36:09;;;;;;;7.18;3.42;;;;;;;17.47;72.20;99508.06;5030506;28;20113;-58
2021/08/13 02:38:59;;;;;;;6.88;3.42;;;;;;;17.47;71.85;99509.94;5034638;28;20075;-57
2021/08/13 02:41:27;;;;;;;5.40;3.08;;;;;;;17.47;71.68;99501.81;5034020;28;20129;-53
2021/08/13 02:43:57;;;;;;;6.00;3.50;;;;;;;17.48;71.83;99511.63;5034654;28;20035;-51
2021/08/13 02:46:26;;;;;;;6.50;3.58;;;;;;;17.45;71.32;99514.69;5034481;28;20030;-53
2021/08/13 02:48:54;;;;;;;6.75;3.22;;;;;;;17.48;71.10;99519.75;5034704;28;20108;-60
2021/08/13 02:51:27;;;;;;;7.93;2.95;;;;;;;17.50;70.58;99509.59;5050100;28;20033;-57
2021/08/13 02:53:54;;;;;;;5.25;2.72;;;;;;;17.44;70.52;99507.59;5054441;28;20115;-60
2021/08/13 02:56:20;;;;;;;4.95;3.28;;;;;;;17.47;69.85;99507.22;5035713;28;20029;-56
2021/08/13 02:58:48;;;;;;;4.70;2.58;;;;;;;17.55;69.87;99519.88;5054167;28;20040;-59
2021/08/13 03:01:18;;;;;;;5.95;3.10;;;;;;;17.57;69.65;99521.38;5053673;28;20025;-59
2021/08/13 03:03:44;;;;;;;5.63;3.20;;;;;;;17.61;68.59;99508.34;5053273;28;20443;-58
2021/08/13 03:06:15;;;;;;;6.00;2.83;;;;;;;17.71;68.28;99519.78;5053912;28;20044;-57
2021/08/13 03:08:42;;;;;;;4.85;3.28;;;;;;;17.70;67.87;99523.50;5053992;28;20041;-57
2021/08/13 03:11:10;;;;;;;3.78;2.72;;;;;;;17.70;67.31;99526.22;5054318;28;20021;-57
2021/08/13 03:13:37;;;;;;;4.03;2.58;;;;;;;17.70;66.68;99522.69;5053907;28;20063;-57
2021/08/13 03:16:03;;;;;;;4.03;2.53;;;;;;;17.72;65.93;99528.75;5053670;28;20025;-56
2021/08/13 03:18:30;;;;;;;3.05;2.22;;;;;;;17.67;65.62;99533.88;5054006;28;20024;-53
2021/08/13 03:20:57;;;;;;;4.55;2.25;;;;;;;17.56;65.86;99508.88;5052495;28;20141;-56
2021/08/13 03:23:24;;;;;;;4.07;2.40;;;;;;;17.73;65.60;99538.56;5053893;28;20029;-56
2021/08/13 03:25:50;;;;;;;8.63;3.00;;;;;;;17.73;65.26;99528.59;5053543;28;20025;-57
2021/08/13 03:28:16;;;;;;;3.03;2.30;;;;;;;17.83;65.45;99541.88;5053911;28;20431;-62
2021/08/13 03:30:43;;;;;;;3.92;2.13;;;;;;;17.90;65.15;99551.00;5053796;28;20045;-57
2021/08/13 03:33:11;;;;;;;3.42;2.53;;;;;;;17.94;65.51;99541.47;5053245;28;20041;-67
2021/08/13 03:35:38;;;;;;;4.30;2.35;;;;;;;17.96;64.88;99529.63;5053540;28;20086;-57
2021/08/13 03:38:04;;;;;;;2.90;2.42;;;;;;;18.11;64.42;99541.41;5052642;28;20381;-56
2021/08/13 03:40:29;;;;;;;5.18;2.83;;;;;;;18.16;64.36;99536.28;5053430;28;20029;-57
2021/08/13 03:42:55;;;;;;;3.50;2.40;;;;;;;18.26;64.19;99551.44;5053062;28;20033;-56
2021/08/13 03:45:21;;;;;;;4.43;2.38;;;;;;;18.27;64.03;99551.28;5053427;28;20033;-57
2021/08/13 03:47:46;;;;;;;4.07;2.38;;;;;;;18.14;63.85;99530.22;5053455;28;20536;-56
2021/08/13 03:50:12;;;;;;;6.28;2.60;;;;;;;18.24;64.09;99554.38;5053007;28;20029;-59
2021/08/13 03:52:37;;;;;;;5.38;2.22;;;;;;;18.18;64.05;99549.63;5053348;28;20047;-59
2021/08/13 03:55:03;;;;;;;6.97;2.38;;;;;;;18.16;63.26;99560.69;5053234;28;20092;-61
2021/08/13 03:57:29;;;;;;;4.15;2.17;;;;;;;18.26;63.13;99555.03;5053612;28;20029;-54
2021/08/13 03:59:54;;;;;;;4.25;2.00;;;;;;;18.49;62.41;99560.41;5053071;28;20041;-55
2021/08/13 04:02:19;;;;;;;3.25;2.22;;;;;;;18.58;62.06;99530.53;5052845;28;20025;-56
2021/08/13 04:04:45;;;;;;;3.55;2.17;;;;;;;18.85;61.63;99548.06;5053514;28;20056;-55
2021/08/13 04:07:11;;;;;;;4.60;2.20;;;;;;;18.94;61.10;99552.38;5053049;28;20037;-56
2021/08/13 04:09:37;;;;;;;7.35;2.13;;;;;;;18.97;61.10;99562.00;5052656;28;20464;-58
2021/08/13 04:12:03;;;;;;;8.55;2.13;;;;;;;18.96;60.08;99562.22;5052521;28;20024;-57
2021/08/13 04:14:28;;;;;;;2.55;2.30;;;;;;;18.85;60.33;99558.09;5052611;28;20032;-57
2021/08/13 04:16:54;;;;;;;4.65;2.10;;;;;;;18.75;60.91;99570.00;5053127;28;20028;-59
2021/08/13 04:19:19;;;;;;;5.13;2.47;;;;;;;18.70;60.86;99566.19;5052793;28;20021;-72
2021/08/13 04:21:45;;;;;;;7.05;2.53;;;;;;;18.71;60.57;99557.84;5052819;28;20037;-59
2021/08/13 04:24:10;;;;;;;9.13;2.30;;;;;;;18.78;60.70;99558.78;5052465;28;20416;-56
2021/08/13 04:26:36;;;;;;;4.50;2.42;;;;;;;18.88;59.84;99568.56;5053063;28;20405;-54
2021/08/13 04:29:01;;;;;;;3.15;2.40;;;;;;;18.98;58.96;99558.31;5052864;28;20119;-58
2021/08/13 04:31:26;;;;;;;5.78;2.20;;;;;;;19.10;58.48;99557.84;5052762;28;20048;-55
2021/08/13 04:33:52;;;;;;;6.75;2.13;;;;;;;19.29;57.38;99548.31;5052465;28;20559;-57
2021/08/13 04:36:17;;;;;;;2.63;2.10;;;;;;;19.58;56.63;99552.00;5052736;28;20438;-57
2021/08/13 04:38:43;;;;;;;10.52;2.05;;;;;;;19.87;55.89;99540.25;5052047;28;20059;-56
2021/08/13 04:41:09;;;;;;;6.45;2.50;;;;;;;20.19;54.71;99548.97;5052184;28;20036;-57
2021/08/13 04:43:35;;;;;;;11.10;2.67;;;;;;;20.72;53.33;99536.88;5052261;28;20064;-59
2021/08/13 04:46:00;;;;;;;5.00;2.70;;;;;;;21.70;50.79;99542.50;5052138;28;20072;-61
2021/08/13 04:48:26;;;;;;;6.40;2.42;;;;;;;22.49;48.21;99543.75;5051738;28;20028;-54
2021/08/13 04:50:51;;;;;;;2.67;1.88;;;;;;;22.59;47.56;99546.06;5052099;28;20060;-55
2021/08/13 04:53:17;;;;;;;4.95;2.47;;;;;;;22.46;48.49;99549.63;5052398;28;20037;-52
2021/08/13 04:55:42;;;;;;;11.93;3.17;;;;;;;22.22;48.62;99551.88;5052082;28;20083;-53
2021/08/13 04:58:08;;;;;;;4.68;2.67;;;;;;;21.93;49.56;99551.19;5052210;28;20025;-60
2021/08/13 05:00:33;;;;;;;3.88;2.30;;;;;;;21.61;50.64;99550.84;5051592;28;20093;-57
2021/08/13 05:03:03;;;;;;;5.35;2.38;;;;;;;21.82;50.90;99556.38;5050460;28;20029;-59
2021/08/13 05:05:29;;;;;;;5.65;2.42;;;;;;;21.89;49.73;99557.25;5051905;28;20029;-57
2021/08/13 05:07:54;;;;;;;6.35;2.60;;;;;;;21.80;49.82;99545.69;5052032;28;20025;-57
2021/08/13 05:10:20;;;;;;;5.28;2.85;;;;;;;21.64;50.52;99545.00;5051871;28;20043;-58
2021/08/13 05:12:45;;;;;;;10.02;2.80;;;;;;;22.43;48.61;99547.31;5051239;28;20082;-58
2021/08/13 05:15:12;;;;;;;6.22;2.42;;;;;;;23.56;45.62;99539.16;5051843;28;20048;-58
2021/08/13 05:17:38;;;;;;;3.17;2.45;;;;;;;24.52;43.11;99539.25;5051292;28;20396;-58
2021/08/13 05:20:05;;;;;;;3.88;2.72;;;;;;;26.29;39.56;99547.22;5051337;28;20025;-55
2021/08/13 05:22:33;;;;;;;9.32;2.65;;;;;;;28.05;35.54;99526.38;5051682;28;20036;-58
2021/08/13 05:25:07;;;;;;;7.88;2.28;;;;;;;29.04;35.15;99543.47;5051312;28;20400;-56
2021/08/13 05:27:34;;;;;;;7.65;2.28;;;;;;;30.60;30.55;99536.94;5051158;28;20102;-60
2021/08/13 05:29:59;;;;;;;4.43;1.85;;;;;;;32.40;27.83;99533.34;5049537;28;20025;-55
2021/08/13 05:32:25;;;;;;;3.92;2.10;;;;;;;32.00;28.18;99551.53;5051132;28;20106;-57
2021/08/13 05:34:51;;;;;;;3.95;1.90;;;;;;;30.57;30.84;99556.81;5050276;28;20047;-56
2021/08/13 05:37:18;;;;;;;3.50;2.08;;;;;;;28.77;33.08;99568.94;5051359;28;20037;-56
2021/08/13 05:39:43;;;;;;;7.38;2.22;;;;;;;27.17;36.19;99574.06;5049897;28;20371;-59
2021/08/13 05:42:11;;;;;;;2.33;1.65;;;;;;;25.66;39.21;99588.53;5051257;28;20480;-60
2021/08/13 05:44:37;;;;;;;5.32;1.85;;;;;;;24.31;41.80;99564.25;5050993;28;20048;-56
2021/08/13 05:47:03;;;;;;;5.32;1.70;;;;;;;23.61;44.25;99585.81;5051189;28;20432;-55
2021/08/13 05:49:29;;;;;;;6.40;2.10;;;;;;;23.07;45.40;99590.56;5050827;28;20032;-60
2021/08/13 05:51:54;;;;;;;14.52;2.40;;;;;;;22.70;46.58;99591.00;5051474;28;20033;-77
2021/08/13 05:54:20;;;;;;;5.80;2.13;;;;;;;22.45;47.59;99583.41;5051417;28;20033;-60
2021/08/13 05:56:45;;;;;;;6.57;1.95;;;;;;;22.24;48.02;99592.56;5050790;28;20028;-57
2021/08/13 05:59:11;;;;;;;3.65;2.03;;;;;;;22.10;48.29;99586.25;5051067;28;20122;-56
2021/08/13 06:01:36;;;;;;;5.60;2.28;;;;;;;22.22;48.35;99589.22;5051232;28;20116;-57
2021/08/13 06:04:01;;;;;;;6.97;2.17;;;;;;;22.57;47.30;99580.06;5050666;28;20033;-58
2021/08/13 06:06:28;;;;;;;6.68;2.03;;;;;;;24.60;42.30;99570.97;5050399;28;20033;-62
2021/08/13 06:08:54;;;;;;;7.18;1.83;;;;;;;25.41;40.30;99591.34;5050944;28;20029;-62
2021/08/13 06:11:20;;;;;;;4.43;1.90;;;;;;;25.57;40.23;99587.19;5051012;28;20323;-62
2021/08/13 06:13:45;;;;;;;4.60;2.10;;;;;;;25.47;40.63;99604.16;5054999;28;20127;-61
2021/08/13 06:16:11;;;;;;;5.65;2.13;;;;;;;24.93;41.78;99601.91;5054580;28;20321;-62
2021/08/13 06:18:37;;;;;;;5.38;2.22;;;;;;;24.21;43.28;99592.94;5054709;28;20461;-62
2021/08/13 06:21:03;;;;;;;4.55;2.05;;;;;;;23.56;44.96;99612.13;5054929;28;20524;-61
2021/08/13 06:23:29;;;;;;;3.90;1.98;;;;;;;22.99;46.38;99616.19;5054914;28;20040;-61
2021/08/13 06:25:54;;;;;;;3.92;1.98;;;;;;;22.55;48.01;99615.75;5052111;28;20028;-69
2021/08/13 06:28:20;;;;;;;5.65;2.00;;;;;;;22.20;48.78;99615.84;5022170;28;20038;-61
2021/08/13 06:30:45;;;;;;;5.78;1.90;;;;;;;21.99;49.23;99616.84;5022364;28;20061;-63
2021/08/13 06:33:11;;;;;;;3.65;2.10;;;;;;;21.83;49.68;99624.31;5024069;28;20082;-62
2021/08/13 06:35:36;;;;;;;10.43;2.92;;;;;;;21.87;50.19;99627.47;5023052;28;20081;-62
2021/08/13 06:38:02;;;;;;;3.78;1.83;;;;;;;21.98;50.06;99629.63;5022675;28;20036;-61
2021/08/13 06:40:32;;;;;;;7.35;2.22;;;;;;;22.09;49.50;99636.38;5025900;28;20029;-63
2021/08/13 06:42:58;;;;;;;7.03;2.20;;;;;;;21.94;49.99;99640.09;5024867;28;20057;-63
2021/08/13 06:45:23;;;;;;;6.07;2.22;;;;;;;21.71;50.02;99626.78;5024114;28;20025;-62
2021/08/13 06:47:49;;;;;;;8.15;2.10;;;;;;;21.55;51.05;99638.81;5025084;28;20042;-63
2021/08/13 06:50:15;;;;;;;3.67;2.00;;;;;;;21.41;50.99;99643.34;5001020;28;20487;-61
2021/08/13 06:52:41;;;;;;;7.28;2.00;;;;;;;21.42;51.33;99650.47;5021429;28;20111;-61
2021/08/13 06:55:07;;;;;;;4.97;2.30;;;;;;;21.36;51.43;99657.53;5024822;28;20037;-61
2021/08/13 06:57:35;;;;;;;4.43;2.10;;;;;;;21.46;51.38;99653.63;5030822;28;20037;-70
2021/08/13 07:00:02;;;;;;;7.38;2.30;;;;;;;21.60;51.33;99665.47;5024708;28;20493;-61
2021/08/13 07:02:27;;;;;;;10.88;2.25;;;;;;;21.79;50.41;99656.56;5024315;28;20022;-71
2021/08/13 07:04:53;;;;;;;6.75;2.20;;;;;;;22.20;49.75;99660.31;5024021;28;20026;-62
2021/08/13 07:07:20;;;;;;;3.72;1.98;;;;;;;22.42;49.08;99632.88;5022681;28;20047;-66
2021/08/13 07:09:47;;;;;;;6.80;2.35;;;;;;;22.74;48.42;99651.44;5024879;28;20457;-64
2021/08/13 07:12:14;;;;;;;9.52;2.20;;;;;;;22.91;47.75;99658.16;5023998;28;20068;-62
2021/08/13 07:14:39;;;;;;;8.55;2.60;;;;;;;22.92;47.42;99648.94;5019619;28;20076;-65
2021/08/13 07:17:05;;;;;;;7.43;2.30;;;;;;;23.08;47.01;99655.84;5014261;28;20038;-60
2021/08/13 07:19:30;;;;;;;6.03;1.88;;;;;;;23.06;46.50;99647.03;5017107;28;20030;-62
2021/08/13 07:21:56;;;;;;;3.78;1.92;;;;;;;23.26;47.05;99662.59;5025254;28;20116;-61
2021/08/13 07:24:23;;;;;;;4.25;2.35;;;;;;;23.55;46.28;99660.47;5022980;28;20032;-62
2021/08/13 07:26:48;;;;;;;4.15;2.25;;;;;;;23.59;46.38;99649.94;5023160;28;20036;-60
2021/08/13 07:29:14;;;;;;;10.90;2.35;;;;;;;24.85;43.48;99648.75;5021606;28;20468;-60
2021/08/13 07:31:40;;;;;;;6.60;2.05;;;;;;;26.68;39.98;99638.25;5019633;28;20046;-61
2021/08/13 07:34:05;;;;;;;4.53;2.20;;;;;;;27.44;37.14;99642.28;5028335;28;20107;-61
2021/08/13 07:36:31;;;;;;;4.57;2.22;;;;;;;27.46;36.84;99653.88;5031448;28;20037;-61
2021/08/13 07:38:56;;;;;;;11.43;2.67;;;;;;;27.36;37.18;99644.31;5032121;28;20100;-61
2021/08/13 07:41:22;;;;;;;7.20;2.40;;;;;;;27.35;37.36;99659.13;5031745;28;20025;-61
2021/08/13 07:43:47;;;;;;;7.35;2.20;;;;;;;27.07;37.71;99655.19;5019943;28;20523;-62
2021/08/13 07:46:13;;;;;;;5.68;2.13;;;;;;;26.86;38.05;99661.25;5013385;28;20080;-58
2021/08/13 07:48:38;;;;;;;6.53;2.30;;;;;;;26.78;38.17;99655.00;5014021;28;20041;-62
2021/08/13 07:51:04;;;;;;;5.38;2.10;;;;;;;26.68;38.51;99673.94;5013329;28;20126;-62
2021/08/13 07:53:29;;;;;;;5.07;2.20;;;;;;;26.41;39.42;99681.75;5013186;28;20041;-61
2021/08/13 07:55:55;;;;;;;4.63;1.70;;;;;;;26.01;39.76;99685.78;5015711;28;20116;-62
2021/08/13 07:58:21;;;;;;;3.15;1.80;;;;;;;25.53;41.09;99682.72;5023154;28;20034;-60
2021/08/13 08:00:47;;;;;;;3.05;2.05;;;;;;;25.34;42.13;99679.94;5021557;28;20032;-62
2021/08/13 08:03:13;;;;;;;6.18;2.05;;;;;;;25.41;41.12;99684.50;5021559;28;20060;-60
2021/08/13 08:05:39;;;;;;;5.32;1.73;;;;;;;25.20;41.48;99694.81;5023982;28;20030;-62
2021/08/13 08:08:05;;;;;;;2.83;1.92;;;;;;;24.76;42.24;99690.06;5021689;28;20049;-61
2021/08/13 08:10:31;;;;;;;5.22;2.10;;;;;;;24.18;43.47;99689.09;5020916;28;20458;-64
2021/08/13 08:12:56;;;;;;;6.15;2.20;;;;;;;23.87;45.12;99700.75;5022613;28;20080;-61
2021/08/13 08:15:22;;;;;;;4.22;1.98;;;;;;;24.12;44.27;99691.88;5023126;28;20049;-61
2021/08/13 08:17:47;;;;;;;5.50;2.10;;;;;;;24.84;42.51;99678.03;5021658;28;20037;-61
2021/08/13 08:20:13;;;;;;;5.63;2.30;;;;;;;25.38;41.29;99691.25;5021046;28;20018;-61
2021/08/13 08:22:39;;;;;;;4.13;2.40;;;;;;;25.43;40.95;99696.09;5020981;28;20457;-61
2021/08/13 08:25:05;;;;;;;9.77;2.63;;;;;;;24.99;41.72;99696.88;5019180;28;20123;-61
2021/08/13 08:27:31;;;;;;;3.83;2.35;;;;;;;24.33;43.52;99704.38;5030296;28;20030;-63
2021/08/13 08:29:56;;;;;;;4.93;2.17;;;;;;;23.75;44.79;99722.44;5032896;28;20075;-60
2021/08/13 08:32:22;;;;;;;3.70;2.30;;;;;;;23.21;45.92;99726.00;5031372;28;20129;-61
2021/08/13 08:34:47;;;;;;;9.43;2.20;;;;;;;22.78;47.55;99729.97;5023701;28;20059;-61
2021/08/13 08:37:13;;;;;;;8.95;2.40;;;;;;;22.44;49.34;99733.59;5032434;28;20033;-61
2021/08/13 08:39:39;;;;;;;7.97;3.00;;;;;;;22.17;50.37;99745.22;5027884;28;20033;-62
2021/08/13 08:42:12;;;;;;;4.55;2.50;;;;;;;22.20;49.38;99747.59;5032380;28;20087;-61
2021/08/13 08:44:37;;;;;;;3.25;2.13;;;;;;;22.04;49.67;99745.19;5031935;28;20033;-60
2021/08/13 08:47:03;;;;;;;5.88;2.35;;;;;;;22.32;49.42;99747.00;5032128;28;20397;-61
2021/08/13 08:49:31;;;;;;;4.68;2.40;;;;;;;23.04;47.45;99733.78;5032275;28;20104;-60
2021/08/13 08:51:57;;;;;;;9.85;2.60;;;;;;;23.88;45.63;99732.50;5031497;28;20037;-60
2021/08/13 08:54:26;;;;;;;4.28;2.47;;;;;;;24.46;44.43;99739.91;5031389;28;20084;-62
2021/08/13 08:56:52;;;;;;;5.43;2.40;;;;;;;24.61;43.45;99736.06;5031614;28;20417;-60
2021/08/13 08:59:21;;;;;;;4.90;2.20;;;;;;;24.74;43.10;99730.50;5032125;28;20044;-60
2021/08/13 09:01:46;;;;;;;5.68;2.50;;;;;;;24.54;43.27;99736.09;5031953;28;20041;-61
2021/08/13 09:04:12;;;;;;;5.20;2.30;;;;;;;24.29;43.95;99739.56;5031535;28;20038;-61
2021/08/13 09:06:41;;;;;;;4.30;2.75;;;;;;;24.05;44.64;99746.56;5031710;28;20029;-61
2021/08/13 09:09:08;;;;;;;4.68;2.45;;;;;;;23.68;45.84;99748.94;5031305;28;20136;-60
2021/08/13 09:11:39;;;;;;;7.32;2.35;;;;;;;23.48;46.37;99758.00;5029999;28;20037;-62
2021/08/13 09:14:07;;;;;;;4.03;2.22;;;;;;;23.25;46.74;99748.31;5031859;28;20060;-61
2021/08/13 09:16:33;;;;;;;5.30;2.58;;;;;;;23.35;46.77;99756.94;5031429;28;20021;-61
2021/08/13 09:19:02;;;;;;;8.45;2.60;;;;;;;23.63;46.85;99761.38;5031638;28;20037;-61
2021/08/13 09:21:28;;;;;;;7.97;2.70;;;;;;;23.70;45.82;99755.03;5031546;28;20033;-61
2021/08/13 09:23:56;;;;;;;5.38;2.20;;;;;;;23.65;46.25;99750.19;5030374;28;20490;-61
2021/08/13 09:26:23;;;;;;;3.53;2.67;;;;;;;23.39;46.36;99762.84;5031672;28;20031;-61
2021/08/13 09:28:58;;;;;;;4.45;2.55;;;;;;;23.10;47.09;99770.34;5030567;28;20033;-61
2021/08/13 09:31:33;;;;;;;3.42;2.42;;;;;;;22.76;48.60;99763.97;5031438;28;20053;-60
2021/08/13 09:34:16;;;;;;;7.82;2.60;;;;;;;22.74;48.62;99782.44;5026447;28;20044;-60
2021/08/13 09:36:50;;;;;;;3.95;2.72;;;;;;;22.95;48.39;99786.91;5031058;28;20098;-61
2021/08/13 09:39:16;;;;;;;6.05;2.90;;;;;;;23.29;47.27;99776.06;5030163;28;20082;-60
2021/08/13 09:41:48;;;;;;;4.20;2.38;;;;;;;23.71;46.41;99786.78;5031152;28;20033;-61
2021/08/13 09:44:34;;;;;;;5.18;2.88;;;;;;;24.15;46.33;99785.28;5025482;28;20444;-62
2021/08/13 09:46:59;;;;;;;;;;;;;;;24.47;45.21;99793.56;5030938;28;20069;-60
2021/08/13 09:49:25;;;;;;;;;;;;;;;24.59;44.88;99792.88;5025565;28;19959;-59
2021/08/13 09:51:50;;;;;;;5.03;2.90;;;;;;;24.34;45.08;99796.34;5021350;28;20285;-60
2021/08/13 09:54:16;;;;;;;3.70;2.80;;;;;;;24.38;44.35;99792.16;5030052;28;20074;-61
2021/08/13 09:56:42;;;;;;;4.53;2.72;;;;;;;24.51;44.58;99786.59;5029926;28;20037;-61
2021/08/13 09:59:19;;;;;;;3.45;3.08;;;;;;;24.84;42.97;99806.72;5029878;28;20331;-60
2021/08/13 10:01:51;;;;;;;5.90;2.63;;;;;;;25.16;42.79;99811.38;5031357;28;20034;-61
2021/08/13 10:04:30;;;;;;;3.10;2.70;;;;;;;25.18;42.87;99801.03;5031385;28;20036;-60
2021/08/13 10:06:56;;;;;;;4.15;2.50;;;;;;;25.36;42.95;99813.97;5030744;28;20029;-60
2021/08/13 10:09:23;;;;;;;3.53;2.80;;;;;;;25.37;41.90;99810.16;5030869;28;20100;-61
2021/08/13 10:11:58;;;;;;;5.43;2.85;;;;;;;25.46;43.34;99814.34;5031128;28;20037;-61
2021/08/13 10:14:29;;;;;;;5.25;3.05;;;;;;;25.15;43.00;99809.69;5031021;28;20029;-60
2021/08/13 10:17:07;;;;;;;5.53;3.15;;;;;;;25.02;43.52;99816.09;5030490;28;20386;-61
2021/08/13 10:19:33;;;;;;;2.70;2.50;;;;;;;24.88;43.04;99815.34;5030921;28;20055;-61
2021/08/13 10:21:59;;;;;;;4.97;2.78;;;;;;;24.83;43.88;99820.59;5030655;28;20041;-61
2021/08/13 10:24:25;;;;;;;4.75;2.67;;;;;;;24.77;43.89;99825.06;5030917;28;20029;-61
2021/08/13 10:26:51;;;;;;;5.13;3.13;;;;;;;24.79;43.42;99829.25;5030547;28;20029;-61
2021/08/13 10:29:17;;;;;;;8.65;3.28;;;;;;;24.90;43.65;99816.78;5030529;28;20033;-61
2021/08/13 10:31:43;;;;;;;6.45;3.10;;;;;;;25.05;43.52;99824.69;5030640;28;20450;-61
2021/08/13 10:34:08;;;;;;;4.93;3.40;;;;;;;25.22;42.70;99830.50;5030282;28;20080;-60
2021/08/13 10:36:37;;;;;;;4.60;2.92;;;;;;;25.33;41.71;99831.72;5030559;28;20057;-60
2021/08/13 10:39:04;;;;;;;5.55;3.30;;;;;;;25.31;42.10;99843.94;5029605;28;20076;-61
2021/08/13 10:41:30;;;;;;;5.60;3.25;;;;;;;25.38;42.67;99842.00;5031046;28;20511;-63
2021/08/13 10:43:58;;;;;;;4.20;3.20;;;;;;;25.59;41.40;99840.81;5030581;28;20408;-60
2021/08/13 10:46:30;;;;;;;5.35;3.15;;;;;;;25.84;40.98;99839.13;5031201;28;20026;-61
2021/08/13 10:48:56;;;;;;;7.82;3.30;;;;;;;25.84;40.87;99848.22;5030943;28;20116;-61
2021/08/13 10:51:27;;;;;;;5.13;3.08;;;;;;;25.86;41.39;99845.22;5030883;28;20036;-63
2021/08/13 10:54:08;;;;;;;5.05;3.35;;;;;;;26.00;41.39;99857.78;5030829;28;20040;-63
2021/08/13 10:56:45;;;;;;;7.28;3.60;;;;;;;26.02;40.81;99849.31;5031383;28;20033;-62
2021/08/13 10:59:11;;;;;;;5.72;3.05;;;;;;;25.76;41.04;99852.06;5033918;28;20037;-62
2021/08/13 11:02:12;;;;;;;6.80;3.30;;;;;;;25.81;41.82;99851.41;5035184;28;20435;-61
2021/08/13 11:04:45;;;;;;;4.75;3.22;;;;;;;25.40;42.54;99850.00;5034670;28;20468;-62
2021/08/13 11:07:11;;;;;;;4.45;3.53;;;;;;;25.02;43.36;99852.53;5034874;28;20105;-61
2021/08/13 11:09:41;;;;;;;5.82;3.03;;;;;;;24.95;42.88;99859.94;5034819;28;20044;-62
2021/08/13 11:12:15;;;;;;;5.63;3.30;;;;;;;24.92;43.29;99863.94;5034569;28;20064;-62
2021/08/13 11:14:47;;;;;;;4.25;3.53;;;;;;;24.93;44.41;99859.31;5033818;28;20051;-62
2021/08/13 11:17:34;;;;;;;4.50;3.22;;;;;;;25.04;43.00;99861.38;5034447;28;20029;-61
2021/08/13 11:20:02;;;;;;;5.18;2.95;;;;;;;24.85;42.37;99859.59;5033926;28;20499;-61
2021/08/13 11:22:34;;;;;;;5.20;3.67;;;;;;;24.71;42.45;99859.59;5032663;28;20207;-60
2021/08/13 11:25:00;;;;;;;6.25;3.63;;;;;;;24.62;43.43;99855.44;5033840;28;20112;-61
2021/08/13 11:27:26;;;;;;;4.80;3.33;;;;;;;24.70;43.10;99860.66;5033813;28;20117;-61
2021/08/13 11:29:51;;;;;;;6.70;3.53;;;;;;;24.64;43.45;99859.63;5032312;28;20033;-62
2021/08/13 11:32:17;;;;;;;7.53;3.60;;;;;;;24.64;43.14;99854.13;5032166;28;20045;-62
2021/08/13 11:34:50;;;;;;;6.88;3.50;;;;;;;24.62;42.93;99871.84;5033200;28;20094;-62